Ishigami, Japan

3:17 PM JST on June 25, 2017 (GMT +0900)
Honjo Shi | | Change Station

Elev 0 ft 36.24 °N, 139.21 °E | Updated 17 minutes ago

Mostly Cloudy
Mostly Cloudy
80.6 °F
Feels Like 83 °F
N
0.6
Wind Variable Wind from South
Gusts 2.5 mph

Today
High -- | Low -- °F
--% Chance of Precip.
Yesterday
High -- | Low -- °F
Precip. -- in
Pressure 29.55 in
Visibility 10.0 miles
Clouds Scattered Clouds 3000 ft
Scattered Clouds 14000 ft
Heat Index 83 °F
Dew Point 68 °F
Humidity 64%
Rainfall 0.14 in
Snow Depth Not available.
4:27 AM 7:04 PM
New Moon, 2% visible
METAR RJTY 250558Z AUTO 17008KT 10SM SCT030 SCT140 24/18 A2955 RMK AO2 SLP005 T02430177 10243 20215 55003
Pressure 29.55 in
Visibility 10.0 miles
Clouds Scattered Clouds 3000 ft
Scattered Clouds 14000 ft
Heat Index 83 °F
Dew Point 68 °F
Humidity 64%
Rainfall 0.14 in
Snow Depth Not available.
4:27 AM 7:04 PM
New Moon, 2% visible
METAR RJTY 250558Z AUTO 17008KT 10SM SCT030 SCT140 24/18 A2955 RMK AO2 SLP005 T02430177 10243 20215 55003

Get Severe Weather Alerts

Thanks for signing up!

Be on the lookout for a verification email in your inbox.

You'll start receiving the daily forecast at 6 AM.

×

10-Day Weather Forecast

No radar image for this location.
×

Almanac

Astronomy

Jun. 25, 2017 Rise Set
Actual Time
Civil Twilight
Nautical Twilight
Astronomical Twilight
Moon
Length of Visible Light
Length of Day
Tomorrow will be .
, % of the Moon is Illuminated

Today's Extremes

Country Highs Country Lows

Community

WunderPhotos

Category 6

Welcome to Category 6. This is the collective home for Weather Underground's featured writeups by Dr. Jeff Masters (right), Bob Henson (left), Chris Burt, and other regular contributors.

Nearby

Air Quality

  Air Quality AQ Index Pollutant
Not available.

Snow Depth

Station Depth Elevation

Earthquake Activity

City Distance Mag. Time & Date
Minimum magnitude displayed is 2.5.

Coastal Water Temperatures

Place Temperature

Stations

Nearby Weather Stations

Station Location Temp. Windchill Dew Point Humidity Wind Precip. Elev Updated Type